createdAt,value
2023-02-17T00:00:57.020Z,6.40
2023-02-17T00:03:25.079Z,5.35
2023-02-17T00:05:53.263Z,7.35
2023-02-17T00:08:21.143Z,5.70
2023-02-17T00:10:57.586Z,5.07
2023-02-17T00:13:26.901Z,6.30
2023-02-17T00:15:55.193Z,6.75
2023-02-17T00:18:23.894Z,6.05
2023-02-17T00:20:52.003Z,6.00
2023-02-17T00:23:19.722Z,8.20
2023-02-17T00:25:47.431Z,6.32
2023-02-17T00:28:15.204Z,7.78
2023-02-17T00:30:44.494Z,8.05
2023-02-17T00:33:12.314Z,6.05
2023-02-17T00:35:42.922Z,7.03
2023-02-17T00:38:10.871Z,7.22
2023-02-17T00:40:38.907Z,9.57
2023-02-17T00:43:06.679Z,6.15
2023-02-17T00:45:34.403Z,7.10
2023-02-17T00:48:03.549Z,5.43
2023-02-17T00:50:31.269Z,6.40
2023-02-17T00:52:58.961Z,6.10
2023-02-17T00:55:27.084Z,11.68
2023-02-17T00:57:54.806Z,5.82
2023-02-17T01:00:22.707Z,6.35
2023-02-17T01:02:50.569Z,10.35
2023-02-17T01:05:21.522Z,6.03
2023-02-17T01:07:49.232Z,6.35
2023-02-17T01:10:17.013Z,13.05
2023-02-17T01:12:44.898Z,10.27
2023-02-17T01:15:12.916Z,7.28
2023-02-17T01:17:40.704Z,7.55
2023-02-17T01:20:11.656Z,6.80
2023-02-17T01:22:41.063Z,8.45
2023-02-17T01:25:09.139Z,5.22
2023-02-17T01:27:37.339Z,7.70
2023-02-17T01:30:05.896Z,8.05
2023-02-17T01:32:33.678Z,6.45
2023-02-17T01:35:01.324Z,9.13
2023-02-17T01:37:29.121Z,7.35
2023-02-17T01:39:58.269Z,7.32
2023-02-17T01:42:26.361Z,5.13
2023-02-17T01:45:33.525Z,6.22
2023-02-17T01:48:06.637Z,11.05
2023-02-17T01:50:37.059Z,8.88
2023-02-17T01:53:07.540Z,6.95
2023-02-17T01:55:38.691Z,7.47
2023-02-17T01:58:08.830Z,5.95
2023-02-17T02:00:38.081Z,7.28
2023-02-17T02:03:09.956Z,8.30
2023-02-17T02:05:39.677Z,6.20
2023-02-17T02:08:08.046Z,9.88
2023-02-17T02:10:37.151Z,8.38
2023-02-17T02:13:05.326Z,7.68
2023-02-17T02:15:38.828Z,9.00
2023-02-17T02:18:17.375Z,8.57
2023-02-17T02:21:27.952Z,7.45
2023-02-17T02:24:06.027Z,6.30
2023-02-17T02:27:09.839Z,10.48
2023-02-17T02:30:12.987Z,7.75
2023-02-17T02:32:51.019Z,6.55
2023-02-17T02:35:24.164Z,7.43
2023-02-17T02:37:57.251Z,7.90
2023-02-17T02:40:29.948Z,11.10
2023-02-17T02:45:25.385Z,7.72
2023-02-17T02:47:56.057Z,8.32
2023-02-17T02:50:32.003Z,8.57
2023-02-17T02:53:43.410Z,7.72
2023-02-17T02:56:20.598Z,7.65
2023-02-17T02:58:53.147Z,7.60
2023-02-17T03:01:30.163Z,8.40
2023-02-17T03:04:08.418Z,8.75
2023-02-17T03:06:40.805Z,9.20
2023-02-17T03:09:12.512Z,10.50
2023-02-17T03:11:41.395Z,8.05
2023-02-17T03:14:11.944Z,11.77
2023-02-17T03:16:41.577Z,10.65
2023-02-17T03:19:11.973Z,9.98
2023-02-17T03:21:43.205Z,10.60
2023-02-17T03:24:11.247Z,7.38
2023-02-17T03:26:39.017Z,10.68
2023-02-17T03:29:06.828Z,9.32
2023-02-17T03:31:34.962Z,7.55
2023-02-17T03:34:02.902Z,8.38
2023-02-17T03:36:32.016Z,10.18
2023-02-17T03:38:59.849Z,9.45
2023-02-17T03:41:27.911Z,7.07
2023-02-17T03:43:56.027Z,8.65
2023-02-17T03:46:23.774Z,10.77
2023-02-17T03:48:51.474Z,9.18
2023-02-17T03:51:21.789Z,7.93
2023-02-17T03:53:51.749Z,7.20
2023-02-17T03:56:20.196Z,7.65
2023-02-17T03:58:48.381Z,10.13
2023-02-17T04:01:16.449Z,9.05
2023-02-17T04:03:44.394Z,8.45
2023-02-17T04:06:12.989Z,9.07
2023-02-17T04:08:41.198Z,8.70
2023-02-17T04:11:11.579Z,7.57
2023-02-17T04:13:40.059Z,7.20
2023-02-17T04:16:08.989Z,5.97
2023-02-17T04:18:37.282Z,6.43
2023-02-17T04:21:05.856Z,8.32
2023-02-17T04:23:33.746Z,8.82
2023-02-17T04:26:01.522Z,7.50
2023-02-17T04:28:30.861Z,9.73
2023-02-17T04:31:00.397Z,7.93
2023-02-17T04:33:28.330Z,7.95
2023-02-17T04:35:59.702Z,11.02
2023-02-17T04:38:28.350Z,6.68
2023-02-17T04:40:56.814Z,9.35
2023-02-17T04:43:24.914Z,8.18
2023-02-17T04:45:54.620Z,7.03
2023-02-17T04:48:22.644Z,7.07
2023-02-17T04:50:50.497Z,6.65
2023-02-17T04:53:18.840Z,6.25
2023-02-17T04:55:49.472Z,9.57
2023-02-17T04:58:17.325Z,5.55
2023-02-17T05:00:45.006Z,6.70
2023-02-17T05:03:14.176Z,7.50
2023-02-17T05:05:41.935Z,4.90
2023-02-17T05:08:09.636Z,6.68
2023-02-17T05:10:37.312Z,9.32
2023-02-17T05:13:05.013Z,6.93
2023-02-17T05:15:34.898Z,5.47
2023-02-17T05:18:02.955Z,9.52
2023-02-17T05:20:32.212Z,6.60
2023-02-17T05:23:00.004Z,5.70
2023-02-17T05:25:29.000Z,6.88
2023-02-17T05:27:57.084Z,8.77
2023-02-17T05:30:24.927Z,8.68
2023-02-17T05:32:52.634Z,6.28
2023-02-17T05:35:20.313Z,7.25
2023-02-17T05:37:49.442Z,7.10
2023-02-17T05:40:17.173Z,7.47
2023-02-17T05:42:44.867Z,8.15
2023-02-17T05:45:12.584Z,16.65
2023-02-17T05:47:40.291Z,6.70
2023-02-17T05:50:09.101Z,8.60
2023-02-17T05:52:36.918Z,8.63
2023-02-17T05:55:06.655Z,7.57
2023-02-17T05:57:34.323Z,11.15
2023-02-17T06:00:02.166Z,10.27
2023-02-17T06:02:29.810Z,8.75
2023-02-17T06:04:57.547Z,7.50
2023-02-17T06:07:25.369Z,7.10
2023-02-17T06:09:53.121Z,10.75
2023-02-17T06:12:22.294Z,7.95
2023-02-17T06:14:50.092Z,8.45
2023-02-17T06:17:17.759Z,8.38
2023-02-17T06:19:45.411Z,8.60
2023-02-17T06:22:13.152Z,9.68
2023-02-17T06:24:40.993Z,7.13
2023-02-17T06:27:08.894Z,10.75
2023-02-17T06:29:38.048Z,11.13
2023-02-17T06:32:06.301Z,8.30
2023-02-17T06:34:34.122Z,6.97
2023-02-17T06:37:02.160Z,8.35
2023-02-17T06:39:29.812Z,10.13
2023-02-17T06:41:57.509Z,8.13
2023-02-17T06:44:27.484Z,7.35
2023-02-17T06:46:56.636Z,7.70
2023-02-17T06:49:24.407Z,11.13
2023-02-17T06:51:52.259Z,9.70
2023-02-17T06:54:19.902Z,15.25
2023-02-17T06:56:47.631Z,9.18
2023-02-17T06:59:15.311Z,7.32
2023-02-17T07:01:43.008Z,9.18
2023-02-17T07:04:12.064Z,9.68
2023-02-17T07:06:39.757Z,11.85
2023-02-17T07:09:07.439Z,12.70
2023-02-17T07:11:35.251Z,14.10
2023-02-17T07:14:03.410Z,8.65
2023-02-17T07:16:31.264Z,6.45
2023-02-17T07:18:58.968Z,7.32
2023-02-17T07:21:28.065Z,8.63
2023-02-17T07:23:55.806Z,7.72
2023-02-17T07:26:23.885Z,8.00
2023-02-17T07:28:51.715Z,12.50
2023-02-17T07:31:19.812Z,8.73
2023-02-17T07:33:48.669Z,6.75
2023-02-17T07:36:18.008Z,10.43
2023-02-17T07:38:47.205Z,7.07
2023-02-17T07:41:16.921Z,9.30
2023-02-17T07:43:45.664Z,5.20
2023-02-17T07:46:14.757Z,6.50
2023-02-17T07:48:42.876Z,8.23
2023-02-17T07:51:12.329Z,8.18
2023-02-17T07:53:40.615Z,8.38
2023-02-17T07:56:11.548Z,7.20
2023-02-17T07:58:41.031Z,6.63
2023-02-17T08:01:09.850Z,7.97
2023-02-17T08:03:38.720Z,4.80
2023-02-17T08:06:10.801Z,9.23
2023-02-17T08:08:56.367Z,6.82
2023-02-17T08:11:44.813Z,6.65
2023-02-17T08:14:13.400Z,9.18
2023-02-17T08:16:41.413Z,9.07
2023-02-17T08:19:11.089Z,8.32
2023-02-17T08:21:38.973Z,6.80
2023-02-17T08:24:08.862Z,7.38
2023-02-17T08:26:38.108Z,6.47
2023-02-17T08:29:06.236Z,6.40
2023-02-17T08:31:36.414Z,5.30
2023-02-17T08:34:06.620Z,10.02
2023-02-17T08:36:37.437Z,5.75
2023-02-17T08:39:06.695Z,6.55
2023-02-17T08:41:38.992Z,6.15
2023-02-17T08:44:09.593Z,6.75
2023-02-17T08:46:40.035Z,5.85
2023-02-17T08:49:08.275Z,5.97
2023-02-17T08:51:37.071Z,5.15
2023-02-17T08:54:07.024Z,6.18
2023-02-17T08:56:35.833Z,5.35
2023-02-17T08:59:05.232Z,6.35
2023-02-17T09:01:34.409Z,14.80
2023-02-17T09:04:03.535Z,6.05
2023-02-17T09:06:35.957Z,5.88
2023-02-17T09:09:05.397Z,5.88
2023-02-17T09:11:33.382Z,6.40
2023-02-17T09:14:01.477Z,8.65
2023-02-17T09:16:31.754Z,6.65
2023-02-17T09:18:59.791Z,6.80
2023-02-17T09:21:27.819Z,8.95
2023-02-17T09:23:55.670Z,5.43
2023-02-17T09:26:25.167Z,4.28
2023-02-17T09:28:52.955Z,7.93
2023-02-17T09:31:22.428Z,5.30
2023-02-17T09:33:51.768Z,5.38
2023-02-17T09:36:22.302Z,6.95
2023-02-17T09:38:50.832Z,6.28
2023-02-17T09:41:22.322Z,5.40
2023-02-17T09:43:51.127Z,7.53
2023-02-17T09:46:24.780Z,5.13
2023-02-17T09:48:57.425Z,5.55
2023-02-17T09:51:31.584Z,4.18
2023-02-17T09:54:06.936Z,5.45
2023-02-17T09:56:38.039Z,5.25
2023-02-17T09:59:16.855Z,5.90
2023-02-17T10:01:46.364Z,3.63
2023-02-17T10:04:21.058Z,4.85
2023-02-17T10:06:55.873Z,5.07
2023-02-17T10:09:28.032Z,5.90
2023-02-17T10:12:03.403Z,5.63
2023-02-17T10:14:37.231Z,3.75
2023-02-17T10:17:09.318Z,3.17
2023-02-17T10:19:46.097Z,7.40
2023-02-17T10:22:18.905Z,6.47
2023-02-17T10:24:46.952Z,8.95
2023-02-17T10:27:33.733Z,3.83
2023-02-17T10:30:16.506Z,7.35
2023-02-17T10:32:54.889Z,3.83
2023-02-17T10:35:31.731Z,4.38
2023-02-17T10:38:07.416Z,6.57
2023-02-17T10:40:36.974Z,3.75
2023-02-17T10:43:10.896Z,5.90
2023-02-17T10:45:42.790Z,4.18
2023-02-17T10:48:15.548Z,4.47
2023-02-17T10:53:15.881Z,5.22
2023-02-17T10:55:54.265Z,4.55
2023-02-17T10:58:29.110Z,3.70
2023-02-17T11:00:58.110Z,4.30
2023-02-17T11:03:27.990Z,4.68
2023-02-17T11:06:00.127Z,5.15
2023-02-17T11:08:40.233Z,4.03
2023-02-17T11:11:17.380Z,6.30
2023-02-17T11:14:00.232Z,4.47
2023-02-17T11:19:00.824Z,5.68
2023-02-17T11:21:33.162Z,3.92
2023-02-17T11:24:03.104Z,7.65
2023-02-17T11:26:32.764Z,2.97
2023-02-17T11:29:13.509Z,4.95
2023-02-17T11:31:41.528Z,6.22
2023-02-17T11:34:14.429Z,4.13
2023-02-17T11:36:45.593Z,5.13
2023-02-17T11:39:21.046Z,6.93
2023-02-17T11:41:50.721Z,4.82
2023-02-17T11:44:29.433Z,4.57
2023-02-17T11:47:07.729Z,4.45
2023-02-17T11:49:59.148Z,4.53
2023-02-17T11:52:48.514Z,4.55
2023-02-17T11:55:25.462Z,6.97
2023-02-17T11:58:07.934Z,5.53
2023-02-17T12:00:46.364Z,6.50
2023-02-17T12:03:36.930Z,4.15
2023-02-17T12:06:14.634Z,6.70
2023-02-17T12:09:04.061Z,5.13
2023-02-17T12:11:41.506Z,6.35
2023-02-17T12:14:35.553Z,4.47
2023-02-17T12:17:11.004Z,5.55
2023-02-17T12:19:47.114Z,5.45
2023-02-17T12:22:20.794Z,7.85
2023-02-17T12:25:04.787Z,4.90
2023-02-17T12:27:50.734Z,5.88
2023-02-17T12:30:35.041Z,4.90
2023-02-17T12:33:25.689Z,5.07
2023-02-17T12:35:57.455Z,5.40
2023-02-17T12:38:27.707Z,5.57
2023-02-17T12:41:04.222Z,5.15
2023-02-17T12:43:37.742Z,7.68
2023-02-17T12:46:10.956Z,4.85
2023-02-17T12:48:44.001Z,7.07
2023-02-17T12:51:18.838Z,6.82
2023-02-17T12:53:51.433Z,7.85
2023-02-17T12:59:22.855Z,7.05
2023-02-17T13:01:56.261Z,7.90
2023-02-17T13:04:27.768Z,6.65
2023-02-17T13:07:11.563Z,7.30
2023-02-17T13:09:42.317Z,3.40
2023-02-17T13:12:17.519Z,4.72
2023-02-17T13:14:49.337Z,4.78
2023-02-17T13:17:29.226Z,6.78
2023-02-17T13:20:29.524Z,6.70
2023-02-17T13:23:10.027Z,7.55
2023-02-17T13:25:39.560Z,4.93
2023-02-17T13:28:35.644Z,10.45
2023-02-17T13:31:16.810Z,8.00
2023-02-17T13:33:48.722Z,5.55
2023-02-17T13:36:21.741Z,6.00
2023-02-17T13:39:06.557Z,7.15
2023-02-17T13:41:45.000Z,11.13
2023-02-17T13:44:30.523Z,5.18
2023-02-17T13:47:03.848Z,6.65
2023-02-17T13:49:35.332Z,7.88
2023-02-17T13:52:12.303Z,5.60
2023-02-17T13:54:42.029Z,7.63
2023-02-17T13:57:23.981Z,4.72
2023-02-17T13:59:51.810Z,5.57
2023-02-17T14:02:35.350Z,6.43
2023-02-17T14:05:17.333Z,4.93
2023-02-17T14:07:47.519Z,5.85
2023-02-17T14:10:24.545Z,5.32
2023-02-17T14:12:55.712Z,5.65
2023-02-17T14:15:28.206Z,5.78
2023-02-17T14:17:57.747Z,5.63
2023-02-17T14:20:27.335Z,5.75
2023-02-17T14:23:04.425Z,4.00
2023-02-17T14:25:34.697Z,5.97
2023-02-17T14:28:02.563Z,6.95
2023-02-17T14:30:33.389Z,7.50
2023-02-17T14:33:23.081Z,4.70
2023-02-17T14:35:52.630Z,4.95
2023-02-17T14:38:23.044Z,5.30
2023-02-17T14:40:50.935Z,5.28
2023-02-17T14:43:22.050Z,9.38
2023-02-17T14:45:51.454Z,9.82
2023-02-17T14:48:21.977Z,8.07
2023-02-17T14:50:50.195Z,6.15
2023-02-17T14:53:24.356Z,7.63
2023-02-17T14:55:57.273Z,8.23
2023-02-17T14:58:25.926Z,7.88
2023-02-17T15:00:53.742Z,10.93
2023-02-17T15:03:23.308Z,9.93
2023-02-17T15:05:51.501Z,10.25
2023-02-17T15:08:22.704Z,8.18
2023-02-17T15:10:53.156Z,6.57
2023-02-17T15:13:22.713Z,8.98
2023-02-17T15:15:50.596Z,4.45
2023-02-17T15:18:20.089Z,7.78
2023-02-17T15:20:54.219Z,6.40
2023-02-17T15:23:25.583Z,4.93
2023-02-17T15:25:54.811Z,5.13
2023-02-17T15:28:22.889Z,5.95
2023-02-17T15:30:56.817Z,3.72
2023-02-17T15:33:25.416Z,5.60
2023-02-17T15:35:55.871Z,8.27
2023-02-17T15:38:27.186Z,5.20
2023-02-17T15:40:59.734Z,7.63
2023-02-17T15:46:13.858Z,5.28
2023-02-17T15:48:42.594Z,5.38
2023-02-17T15:51:15.075Z,11.52
2023-02-17T15:53:43.068Z,9.02
2023-02-17T15:56:14.555Z,9.80
2023-02-17T15:58:42.425Z,4.35
2023-02-17T16:01:17.911Z,7.55
2023-02-17T16:03:45.704Z,5.82
2023-02-17T16:06:14.922Z,5.28
2023-02-17T16:08:42.635Z,7.72
2023-02-17T16:11:13.501Z,8.02
2023-02-17T16:13:42.229Z,7.40
2023-02-17T16:16:16.642Z,6.25
2023-02-17T16:18:44.299Z,8.60
2023-02-17T16:21:12.649Z,5.53
2023-02-17T16:23:42.225Z,3.65
2023-02-17T16:26:19.791Z,6.00
2023-02-17T16:28:47.913Z,5.80
2023-02-17T16:31:15.610Z,5.18
2023-02-17T16:33:43.380Z,5.95
2023-02-17T16:36:16.019Z,6.75
2023-02-17T16:41:15.034Z,3.25
2023-02-17T16:43:43.545Z,7.43
2023-02-17T16:46:20.789Z,4.63
2023-02-17T16:48:48.527Z,6.03
2023-02-17T16:51:16.246Z,4.03
2023-02-17T16:53:46.347Z,3.95
2023-02-17T16:56:19.138Z,5.38
2023-02-17T16:58:46.874Z,4.63
2023-02-17T17:01:15.165Z,4.72
2023-02-17T17:03:43.845Z,6.47
2023-02-17T17:06:20.306Z,5.05
2023-02-17T17:08:50.158Z,3.35
2023-02-17T17:11:20.366Z,3.97
2023-02-17T17:13:48.752Z,3.53
2023-02-17T17:16:20.003Z,3.28
2023-02-17T17:18:50.814Z,4.72
2023-02-17T17:21:19.994Z,4.25
2023-02-17T17:23:50.637Z,4.38
2023-02-17T17:26:24.930Z,4.78
2023-02-17T17:28:52.889Z,6.20
2023-02-17T17:31:21.349Z,4.50
2023-02-17T17:33:49.928Z,3.45
2023-02-17T17:36:24.326Z,6.30
2023-02-17T17:38:54.606Z,4.28
2023-02-17T17:41:22.870Z,3.53
2023-02-17T17:43:51.639Z,3.90
2023-02-17T17:46:21.367Z,3.50
2023-02-17T17:48:49.637Z,5.53
2023-02-17T17:51:23.653Z,3.92
2023-02-17T17:53:52.765Z,4.25
2023-02-17T17:56:22.330Z,3.53
2023-02-17T17:58:50.733Z,3.33
2023-02-17T18:01:19.281Z,3.47
2023-02-17T18:03:47.571Z,5.47
2023-02-17T18:06:18.648Z,11.63
2023-02-17T18:08:49.151Z,5.28
2023-02-17T18:11:20.578Z,5.00
2023-02-17T18:13:52.734Z,5.13
2023-02-17T18:16:22.550Z,4.75
2023-02-17T18:18:50.993Z,9.82
2023-02-17T18:21:18.726Z,3.55
2023-02-17T18:23:46.592Z,6.90
2023-02-17T18:26:14.884Z,4.18
2023-02-17T18:28:43.967Z,6.78
2023-02-17T18:31:14.126Z,4.60
2023-02-17T18:33:42.039Z,5.18
2023-02-17T18:36:11.582Z,4.47
2023-02-17T18:38:39.705Z,4.22
2023-02-17T18:41:07.799Z,7.05
2023-02-17T18:43:36.089Z,6.25
2023-02-17T18:46:06.218Z,4.60
2023-02-17T18:48:34.235Z,4.45
2023-02-17T18:51:06.974Z,4.28
2023-02-17T18:53:41.942Z,5.82
2023-02-17T18:56:12.022Z,4.25
2023-02-17T18:58:40.263Z,9.48
2023-02-17T19:01:16.031Z,4.95
2023-02-17T19:03:43.880Z,4.93
2023-02-17T19:06:13.039Z,5.38
2023-02-17T19:08:40.769Z,4.72
2023-02-17T19:11:09.834Z,3.92
2023-02-17T19:13:38.529Z,5.47
2023-02-17T19:16:10.492Z,5.78
2023-02-17T19:18:38.888Z,6.38
2023-02-17T19:21:07.261Z,6.60
2023-02-17T19:23:36.188Z,5.63
2023-02-17T19:26:06.914Z,5.55
2023-02-17T19:28:36.013Z,5.53
2023-02-17T19:31:07.343Z,7.30
2023-02-17T19:33:36.634Z,6.43
2023-02-17T19:36:08.869Z,4.35
2023-02-17T19:38:36.946Z,5.88
2023-02-17T19:41:05.477Z,5.88
2023-02-17T19:43:33.309Z,8.18
2023-02-17T19:46:01.544Z,4.47
2023-02-17T19:48:29.384Z,5.40
2023-02-17T19:51:02.813Z,7.40
2023-02-17T19:53:31.938Z,5.78
2023-02-17T19:56:10.594Z,5.57
2023-02-17T19:58:40.175Z,5.00
2023-02-17T20:01:09.190Z,6.07
2023-02-17T20:03:37.874Z,7.75
2023-02-17T20:06:10.199Z,6.07
2023-02-17T20:08:39.573Z,6.03
2023-02-17T20:11:08.492Z,7.00
2023-02-17T20:13:45.630Z,7.75
2023-02-17T20:16:16.058Z,7.32
2023-02-17T20:18:45.753Z,5.40
2023-02-17T20:21:18.157Z,4.45
2023-02-17T20:23:48.434Z,7.03
2023-02-17T20:26:18.641Z,3.50
2023-02-17T20:28:47.049Z,4.80
2023-02-17T20:31:15.249Z,5.35
2023-02-17T20:33:47.444Z,6.25
2023-02-17T20:36:18.454Z,6.05
2023-02-17T20:38:46.534Z,5.93
2023-02-17T20:41:17.212Z,3.88
2023-02-17T20:43:45.837Z,6.47
2023-02-17T20:46:15.768Z,5.32
2023-02-17T20:48:43.871Z,4.43
2023-02-17T20:51:11.942Z,3.55
2023-02-17T20:53:41.448Z,3.65
2023-02-17T20:56:13.898Z,4.28
2023-02-17T20:58:44.545Z,4.10
2023-02-17T21:01:12.746Z,3.55
2023-02-17T21:03:40.794Z,4.18
2023-02-17T21:06:20.602Z,5.68
2023-02-17T21:08:51.878Z,3.72
2023-02-17T21:11:19.682Z,3.65
2023-02-17T21:13:47.795Z,3.35
2023-02-17T21:16:17.405Z,4.45
2023-02-17T21:18:46.973Z,2.78
2023-02-17T21:21:15.425Z,5.32
2023-02-17T21:23:43.923Z,2.17
2023-02-17T21:26:14.233Z,2.78
2023-02-17T21:28:42.246Z,3.00
2023-02-17T21:31:10.733Z,2.17
2023-02-17T21:33:42.192Z,3.05
2023-02-17T21:36:14.359Z,2.80
2023-02-17T21:38:42.308Z,3.75
2023-02-17T21:41:11.772Z,2.08
2023-02-17T21:43:58.785Z,3.33
2023-02-17T21:46:28.048Z,3.10
2023-02-17T21:48:56.994Z,3.05
2023-02-17T21:51:25.022Z,5.22
2023-02-17T21:53:53.600Z,3.08
2023-02-17T21:56:22.433Z,3.10
2023-02-17T21:58:53.500Z,3.20
2023-02-17T22:01:22.927Z,3.55
2023-02-17T22:03:50.721Z,4.10
2023-02-17T22:06:23.552Z,6.28
2023-02-17T22:08:52.028Z,3.60
2023-02-17T22:11:21.538Z,4.00
2023-02-17T22:13:49.306Z,3.67
2023-02-17T22:16:18.326Z,4.47
2023-02-17T22:18:46.007Z,4.05
2023-02-17T22:21:15.001Z,3.60
2023-02-17T22:23:43.581Z,3.33
2023-02-17T22:26:13.874Z,2.22
2023-02-17T22:28:41.637Z,2.83
2023-02-17T22:31:09.436Z,2.83
2023-02-17T22:33:38.514Z,5.25
2023-02-17T22:36:09.333Z,3.80
2023-02-17T22:38:37.465Z,2.50
2023-02-17T22:41:07.722Z,2.33
2023-02-17T22:43:36.794Z,1.50
2023-02-17T22:46:06.114Z,3.05
2023-02-17T22:48:35.621Z,2.20
2023-02-17T22:51:07.780Z,1.67
2023-02-17T22:53:36.317Z,1.60
2023-02-17T22:56:05.539Z,1.40
2023-02-17T22:58:33.872Z,1.80
2023-02-17T23:01:05.857Z,1.95
2023-02-17T23:03:34.045Z,2.42
2023-02-17T23:06:02.044Z,2.13
2023-02-17T23:08:31.320Z,2.25
2023-02-17T23:10:59.052Z,1.58
2023-02-17T23:13:26.989Z,2.35
2023-02-17T23:15:54.749Z,1.20
2023-02-17T23:18:22.486Z,2.75
2023-02-17T23:20:51.688Z,1.55
2023-02-17T23:23:20.661Z,1.58
2023-02-17T23:25:52.320Z,2.22
2023-02-17T23:28:21.326Z,2.28
2023-02-17T23:30:50.203Z,2.78
2023-02-17T23:33:19.493Z,1.38
2023-02-17T23:35:47.705Z,2.17
2023-02-17T23:38:17.340Z,1.55
2023-02-17T23:40:50.882Z,3.92
2023-02-17T23:43:19.183Z,2.10
2023-02-17T23:45:47.229Z,2.08
2023-02-17T23:48:15.498Z,1.92
2023-02-17T23:50:43.919Z,1.50
2023-02-17T23:53:11.697Z,2.22
2023-02-17T23:55:39.954Z,2.00
2023-02-17T23:58:09.074Z,1.23
